WXM80 ListenWXM80 Stop

You find our weather info also at:

UK Metoffice

WeatherCloud

Weather Underground

Northeastern Weather Network

AWEKAS

Citizen Weather Observer Program (CWOP)

HAMweather, WeatherForYou, PWS Weather


Weather Underground History page Text

Daily Summary for September 6, 2016 Units:  English    Metric   Both
« Previous Day
Next Day »
Daily Weekly Monthly Yearly Custom
  High: Low: Average:
Temperature: 74.6 °F 70.7 °F 72.3 °F
Dew Point: 70.3 °F 60.1 °F 66.1 °F
Humidity: 96 % 61 % 81 %
Wind Speed: 14.9 mph 3.8 mph 8.8 mph
Wind Gust: 23.0 mph - -
Wind:- - ENE
Pressure: 29.95 in 29.88 in -
Precipitation: 0.13 in    
Historical Graphs
 
 
Tabular Data for September 6, 2016
Time Temperature Dew Point Pressure Wind Wind Speed Wind Gust Humidity Rainfall Rate (Hourly)
00:02 74.6 °F 60.3 °F 29.91 in NE 10.4 mph 18.0 mph 61 % 0.00 in
00:07 74.6 °F 60.3 °F 29.91 in NE 11.6 mph 17.0 mph 61 % 0.00 in
00:12 74.5 °F 60.2 °F 29.91 in ENE 9.4 mph 17.3 mph 61 % 0.00 in
00:17 74.5 °F 60.2 °F 29.91 in NNE 11.7 mph 18.4 mph 61 % 0.00 in
00:22 74.4 °F 60.1 °F 29.90 in NNE 13.7 mph 20.0 mph 61 % 0.00 in
00:27 74.4 °F 60.1 °F 29.91 in North 12.3 mph 21.9 mph 61 % 0.00 in
00:32 74.4 °F 60.5 °F 29.91 in NE 12.3 mph 18.4 mph 62 % 0.00 in
00:38 74.4 °F 60.5 °F 29.91 in NNE 8.9 mph 19.6 mph 62 % 0.00 in
00:43 74.4 °F 61.0 °F 29.91 in North 10.6 mph 15.0 mph 63 % 0.00 in
00:48 74.3 °F 60.9 °F 29.91 in NNE 8.8 mph 13.8 mph 63 % 0.00 in
00:53 74.3 °F 60.9 °F 29.90 in NNE 7.6 mph 11.5 mph 63 % 0.00 in
00:58 74.2 °F 60.8 °F 29.91 in NNE 10.4 mph 14.0 mph 63 % 0.00 in
01:03 74.2 °F 61.2 °F 29.91 in ENE 11.7 mph 18.0 mph 64 % 0.00 in
01:08 74.1 °F 61.6 °F 29.90 in NNE 11.2 mph 19.0 mph 65 % 0.00 in
01:13 74.0 °F 61.0 °F 29.90 in North 8.9 mph 19.6 mph 64 % 0.00 in
01:18 74.0 °F 61.0 °F 29.90 in NNE 8.4 mph 16.1 mph 64 % 0.00 in
01:23 73.9 °F 61.4 °F 29.90 in NE 8.9 mph 17.0 mph 65 % 0.00 in
01:29 73.8 °F 61.3 °F 29.90 in NE 8.5 mph 17.3 mph 65 % 0.00 in
01:34 73.7 °F 60.8 °F 29.90 in North 11.8 mph 19.6 mph 64 % 0.00 in
01:39 73.6 °F 61.1 °F 29.90 in ENE 9.3 mph 16.1 mph 65 % 0.00 in
01:44 73.6 °F 61.5 °F 29.90 in North 11.1 mph 19.6 mph 66 % 0.00 in
01:49 73.5 °F 61.4 °F 29.89 in NNE 9.3 mph 14.0 mph 66 % 0.00 in
01:54 73.5 °F 61.0 °F 29.90 in ENE 6.5 mph 11.5 mph 65 % 0.00 in
01:59 73.4 °F 60.5 °F 29.89 in North 11.1 mph 17.3 mph 64 % 0.00 in
02:04 73.3 °F 60.4 °F 29.89 in North 10.1 mph 14.0 mph 64 % 0.00 in
02:09 73.2 °F 60.7 °F 29.89 in North 11.6 mph 20.0 mph 65 % 0.00 in
02:14 73.2 °F 61.2 °F 29.89 in North 7.3 mph 11.5 mph 66 % 0.00 in
02:20 73.1 °F 60.6 °F 29.89 in NNE 10.0 mph 18.4 mph 65 % 0.00 in
02:25 73.1 °F 61.1 °F 29.89 in NNW 10.0 mph 16.1 mph 66 % 0.00 in
02:30 73.1 °F 61.1 °F 29.88 in NNE 11.4 mph 16.1 mph 66 % 0.00 in
02:35 73.0 °F 61.4 °F 29.89 in North 6.7 mph 11.5 mph 67 % 0.00 in
02:40 73.0 °F 61.0 °F 29.88 in NNE 7.2 mph 11.5 mph 66 % 0.00 in
02:45 72.9 °F 60.9 °F 29.88 in NNE 8.8 mph 14.0 mph 66 % 0.00 in
02:50 72.9 °F 61.3 °F 29.88 in North 8.1 mph 16.1 mph 67 % 0.00 in
02:55 72.8 °F 60.3 °F 29.88 in NNE 9.8 mph 20.0 mph 65 % 0.00 in
03:00 72.7 °F 60.3 °F 29.88 in NNE 9.6 mph 16.1 mph 65 % 0.00 in
03:05 72.7 °F 60.7 °F 29.88 in NNE 9.3 mph 16.1 mph 66 % 0.00 in
03:11 72.6 °F 61.0 °F 29.88 in NNE 9.0 mph 18.0 mph 67 % 0.00 in
03:16 72.6 °F 60.6 °F 29.88 in NNW 6.8 mph 16.1 mph 66 % 0.00 in
03:21 72.5 °F 60.5 °F 29.88 in NNE 10.0 mph 21.0 mph 66 % 0.00 in
03:26 72.5 °F 60.9 °F 29.88 in NNE 10.0 mph 16.0 mph 67 % 0.00 in
03:31 72.5 °F 61.7 °F 29.89 in North 9.8 mph 15.0 mph 69 % 0.00 in
03:36 72.5 °F 62.2 °F 29.88 in NNE 12.0 mph 20.0 mph 70 % 0.00 in
03:41 72.5 °F 62.6 °F 29.88 in NNE 9.0 mph 17.0 mph 71 % 0.00 in
03:46 72.5 °F 62.6 °F 29.88 in NNE 6.9 mph 17.0 mph 71 % 0.00 in
03:51 72.4 °F 62.5 °F 29.88 in NNE 10.0 mph 20.0 mph 71 % 0.00 in
03:56 72.3 °F 62.4 °F 29.89 in NNE 12.0 mph 20.0 mph 71 % 0.00 in
04:01 72.3 °F 62.8 °F 29.89 in North 10.7 mph 19.6 mph 72 % 0.00 in
04:06 72.3 °F 63.2 °F 29.88 in ENE 9.2 mph 23.0 mph 73 % 0.00 in
04:11 72.3 °F 63.2 °F 29.89 in NNE 8.4 mph 16.1 mph 73 % 0.00 in
04:16 72.2 °F 63.4 °F 29.89 in NNE 7.0 mph 12.0 mph 74 % 0.00 in
04:26 72.2 °F 63.8 °F 29.88 in NNE 7.8 mph 14.0 mph 75 % 0.00 in
04:31 72.1 °F 63.4 °F 29.89 in East 9.3 mph 15.0 mph 74 % 0.00 in
04:36 71.9 °F 63.5 °F 29.89 in NE 7.8 mph 17.3 mph 75 % 0.00 in
04:41 71.7 °F 63.7 °F 29.88 in NE 10.8 mph 14.0 mph 76 % 0.00 in
04:46 71.5 °F 63.5 °F 29.88 in NNE 10.4 mph 13.8 mph 76 % 0.00 in
04:52 71.2 °F 63.6 °F 29.88 in North 5.4 mph 16.1 mph 77 % 0.00 in
04:57 71.0 °F 63.4 °F 29.88 in NNE 11.2 mph 18.4 mph 77 % 0.00 in
05:02 70.9 °F 63.7 °F 29.89 in North 6.5 mph 18.4 mph 78 % 0.00 in
05:07 70.7 °F 63.5 °F 29.89 in ENE 6.4 mph 9.2 mph 78 % 0.00 in
05:12 70.7 °F 63.5 °F 29.89 in NNE 9.0 mph 16.1 mph 78 % 0.00 in
05:17 70.7 °F 63.5 °F 29.89 in NNE 7.5 mph 16.1 mph 78 % 0.00 in
05:22 70.7 °F 63.9 °F 29.90 in NNE 9.5 mph 15.0 mph 79 % 0.00 in
05:27 70.8 °F 64.0 °F 29.90 in North 7.2 mph 13.8 mph 79 % 0.00 in
05:32 71.0 °F 63.8 °F 29.90 in NNE 10.2 mph 16.1 mph 78 % 0.00 in
05:37 71.1 °F 63.9 °F 29.90 in North 9.8 mph 12.7 mph 78 % 0.00 in
05:48 71.1 °F 63.5 °F 29.90 in NNE 7.0 mph 12.0 mph 77 % 0.00 in
05:58 71.1 °F 63.5 °F 29.90 in North 7.2 mph 11.5 mph 77 % 0.00 in
06:03 71.0 °F 63.4 °F 29.90 in NE 7.7 mph 12.0 mph 77 % 0.00 in
06:08 71.0 °F 63.8 °F 29.90 in NE 10.3 mph 11.5 mph 78 % 0.00 in
06:13 71.0 °F 63.8 °F 29.91 in NE 12.4 mph 17.3 mph 78 % 0.00 in
06:18 71.0 °F 63.4 °F 29.91 in North 6.6 mph 13.8 mph 77 % 0.00 in
06:23 71.0 °F 63.4 °F 29.91 in NE 7.0 mph 12.7 mph 77 % 0.00 in
06:28 70.9 °F 63.7 °F 29.91 in North 8.0 mph 11.5 mph 78 % 0.00 in
06:34 70.9 °F 63.3 °F 29.91 in NNE 8.5 mph 17.3 mph 77 % 0.00 in
06:39 70.9 °F 63.7 °F 29.91 in North 9.2 mph 12.7 mph 78 % 0.00 in
06:44 70.9 °F 63.3 °F 29.91 in North 6.4 mph 9.2 mph 77 % 0.00 in
06:49 70.9 °F 63.3 °F 29.91 in NNE 10.7 mph 16.0 mph 77 % 0.00 in
06:54 70.9 °F 63.7 °F 29.92 in NE 9.4 mph 15.0 mph 78 % 0.00 in
06:59 71.0 °F 63.8 °F 29.91 in NNE 11.2 mph 16.1 mph 78 % 0.00 in
07:04 71.0 °F 64.2 °F 29.91 in NNE 10.2 mph 18.4 mph 79 % 0.00 in
07:09 71.0 °F 64.2 °F 29.92 in NE 10.8 mph 19.0 mph 79 % 0.00 in
07:14 71.0 °F 64.2 °F 29.92 in NNE 9.6 mph 16.0 mph 79 % 0.00 in
07:19 71.0 °F 64.2 °F 29.92 in NNE 9.4 mph 16.1 mph 79 % 0.00 in
07:25 71.0 °F 64.2 °F 29.92 in North 14.1 mph 20.7 mph 79 % 0.00 in
07:30 71.0 °F 64.2 °F 29.92 in North 8.5 mph 17.3 mph 79 % 0.00 in
07:35 71.0 °F 64.2 °F 29.92 in North 10.4 mph 15.0 mph 79 % 0.00 in
07:40 71.0 °F 64.2 °F 29.92 in North 10.9 mph 16.1 mph 79 % 0.00 in
07:45 71.0 °F 64.5 °F 29.92 in NNE 8.9 mph 16.1 mph 80 % 0.00 in
07:50 71.0 °F 64.5 °F 29.92 in NE 8.6 mph 15.0 mph 80 % 0.00 in
08:01 70.9 °F 64.4 °F 29.93 in NE 9.4 mph 21.9 mph 80 % 0.00 in
08:06 70.8 °F 64.3 °F 29.93 in NNE 10.3 mph 19.6 mph 80 % 0.00 in
08:11 70.8 °F 64.3 °F 29.93 in NNE 9.5 mph 16.1 mph 80 % 0.00 in
08:16 70.9 °F 64.4 °F 29.93 in North 9.4 mph 16.1 mph 80 % 0.00 in
08:21 70.9 °F 64.1 °F 29.93 in NNW 13.5 mph 21.9 mph 79 % 0.00 in
08:26 70.9 °F 64.4 °F 29.93 in NE 11.1 mph 19.6 mph 80 % 0.00 in
08:31 70.9 °F 64.4 °F 29.93 in NNE 12.1 mph 15.0 mph 80 % 0.00 in
08:36 70.9 °F 64.4 °F 29.93 in NE 13.8 mph 18.4 mph 80 % 0.00 in
08:41 70.9 °F 64.4 °F 29.93 in North 9.4 mph 19.6 mph 80 % 0.00 in
08:46 70.8 °F 64.0 °F 29.93 in NNE 9.7 mph 19.6 mph 79 % 0.00 in
08:57 70.9 °F 64.4 °F 29.93 in NE 13.3 mph 19.6 mph 80 % 0.00 in
09:02 71.1 °F 64.6 °F 29.93 in NE 12.5 mph 19.6 mph 80 % 0.00 in
09:07 71.2 °F 65.1 °F 29.92 in North 13.4 mph 19.6 mph 81 % 0.00 in
09:12 71.3 °F 64.8 °F 29.92 in NNE 11.1 mph 18.4 mph 80 % 0.00 in
09:17 71.3 °F 64.8 °F 29.93 in NNE 9.4 mph 12.7 mph 80 % 0.00 in
09:22 71.3 °F 64.8 °F 29.93 in NNE 12.2 mph 18.4 mph 80 % 0.00 in
09:27 71.5 °F 65.4 °F 29.93 in NNE 11.5 mph 23.0 mph 81 % 0.00 in
09:32 71.5 °F 65.0 °F 29.93 in North 10.9 mph 18.4 mph 80 % 0.00 in
09:37 71.5 °F 65.0 °F 29.93 in NNE 11.7 mph 23.0 mph 80 % 0.00 in
09:43 71.5 °F 65.0 °F 29.93 in NNE 8.2 mph 21.9 mph 80 % 0.00 in
09:48 71.4 °F 65.3 °F 29.93 in NNE 10.2 mph 13.0 mph 81 % 0.00 in
09:53 71.3 °F 65.2 °F 29.93 in North 9.8 mph 17.3 mph 81 % 0.00 in
09:58 71.2 °F 65.1 °F 29.93 in North 10.6 mph 15.0 mph 81 % 0.00 in
10:03 71.2 °F 65.4 °F 29.94 in North 9.8 mph 16.1 mph 82 % 0.00 in
10:08 71.1 °F 65.3 °F 29.94 in NE 9.7 mph 15.0 mph 82 % 0.00 in
10:13 71.1 °F 65.3 °F 29.93 in North 9.9 mph 17.0 mph 82 % 0.00 in
10:18 71.1 °F 65.3 °F 29.93 in NNE 13.4 mph 17.0 mph 82 % 0.00 in
10:23 71.0 °F 65.2 °F 29.93 in NE 14.9 mph 18.4 mph 82 % 0.00 in
10:28 71.1 °F 65.7 °F 29.94 in NNE 11.6 mph 20.0 mph 83 % 0.00 in
10:34 71.1 °F 65.7 °F 29.93 in North 11.9 mph 13.8 mph 83 % 0.00 in
10:39 71.2 °F 65.4 °F 29.93 in NNE 11.3 mph 17.3 mph 82 % 0.00 in
10:44 71.3 °F 65.5 °F 29.93 in NE 12.5 mph 19.6 mph 82 % 0.00 in
10:49 71.5 °F 65.7 °F 29.93 in NNE 10.2 mph 17.3 mph 82 % 0.00 in
10:54 71.6 °F 65.8 °F 29.93 in NNE 11.6 mph 12.7 mph 82 % 0.00 in
10:59 71.8 °F 66.0 °F 29.94 in NE 9.2 mph 13.8 mph 82 % 0.00 in
11:04 71.9 °F 66.1 °F 29.93 in NNE 11.0 mph 18.4 mph 82 % 0.00 in
11:09 72.0 °F 65.8 °F 29.94 in North 13.3 mph 20.7 mph 81 % 0.00 in
11:14 72.1 °F 66.3 °F 29.94 in NE 9.2 mph 15.0 mph 82 % 0.00 in
11:19 72.2 °F 66.4 °F 29.94 in NNE 8.3 mph 15.0 mph 82 % 0.00 in
11:30 72.3 °F 66.1 °F 29.93 in NNE 10.7 mph 15.0 mph 81 % 0.00 in
11:35 72.5 °F 66.7 °F 29.93 in North 9.1 mph 16.1 mph 82 % 0.00 in
11:40 72.5 °F 66.3 °F 29.93 in North 10.2 mph 13.8 mph 81 % 0.00 in
11:45 72.6 °F 66.4 °F 29.93 in NNE 11.2 mph 15.0 mph 81 % 0.00 in
11:50 72.6 °F 66.8 °F 29.93 in NNW 12.4 mph 17.3 mph 82 % 0.00 in
11:55 72.6 °F 66.8 °F 29.93 in NNE 8.2 mph 11.0 mph 82 % 0.00 in
12:00 72.8 °F 66.6 °F 29.93 in NE 12.5 mph 18.0 mph 81 % 0.00 in
12:05 72.7 °F 66.5 °F 29.93 in NNE 10.0 mph 19.6 mph 81 % 0.00 in
12:10 72.8 °F 66.6 °F 29.93 in NNE 11.6 mph 15.0 mph 81 % 0.00 in
12:16 72.8 °F 66.6 °F 29.93 in NNE 9.0 mph 18.0 mph 81 % 0.00 in
12:26 72.8 °F 66.6 °F 29.93 in NNE 9.0 mph 17.0 mph 81 % 0.00 in
12:31 72.9 °F 67.4 °F 29.92 in North 8.0 mph 14.0 mph 83 % 0.00 in
12:36 73.0 °F 66.8 °F 29.92 in NNE 7.8 mph 15.0 mph 81 % 0.00 in
12:41 73.2 °F 67.4 °F 29.92 in NE 5.8 mph 11.5 mph 82 % 0.00 in
12:46 73.3 °F 67.1 °F 29.92 in North 8.3 mph 16.1 mph 81 % 0.00 in
12:56 73.6 °F 67.4 °F 29.93 in NE 5.3 mph 8.1 mph 81 % 0.00 in
13:01 73.7 °F 67.1 °F 29.92 in North 11.2 mph 16.1 mph 80 % 0.00 in
13:06 73.7 °F 67.1 °F 29.93 in NNE 8.4 mph 17.3 mph 80 % 0.00 in
13:11 73.8 °F 67.6 °F 29.92 in NNE 7.8 mph 16.1 mph 81 % 0.00 in
13:16 73.8 °F 67.6 °F 29.93 in NE 10.2 mph 11.5 mph 81 % 0.00 in
13:22 73.8 °F 67.6 °F 29.93 in North 8.2 mph 13.8 mph 81 % 0.00 in
13:27 73.8 °F 67.6 °F 29.93 in NNE 8.5 mph 15.0 mph 81 % 0.00 in
13:32 73.8 °F 67.6 °F 29.92 in NE 7.2 mph 13.8 mph 81 % 0.00 in
13:37 73.7 °F 67.1 °F 29.92 in North 11.7 mph 19.6 mph 80 % 0.00 in
13:42 73.6 °F 67.4 °F 29.92 in NNE 11.7 mph 20.0 mph 81 % 0.00 in
13:47 73.6 °F 67.4 °F 29.92 in NNE 10.6 mph 18.4 mph 81 % 0.00 in
13:52 73.6 °F 67.4 °F 29.92 in NNE 10.9 mph 18.4 mph 81 % 0.00 in
13:57 73.6 °F 67.4 °F 29.92 in NE 13.3 mph 16.0 mph 81 % 0.00 in
14:07 73.8 °F 68.0 °F 29.92 in North 10.1 mph 16.0 mph 82 % 0.00 in
14:13 73.8 °F 68.0 °F 29.92 in NE 9.8 mph 16.0 mph 82 % 0.00 in
14:18 73.8 °F 68.0 °F 29.92 in NNE 7.2 mph 16.1 mph 82 % 0.00 in
14:23 73.8 °F 68.3 °F 29.92 in NNE 6.9 mph 11.5 mph 83 % 0.00 in
14:28 73.5 °F 67.7 °F 29.92 in NNE 10.0 mph 15.0 mph 82 % 0.00 in
14:33 73.3 °F 67.8 °F 29.92 in NNE 11.3 mph 16.1 mph 83 % 0.00 in
14:38 73.3 °F 67.8 °F 29.92 in NE 7.5 mph 15.0 mph 83 % 0.00 in
14:43 73.4 °F 68.3 °F 29.92 in NE 7.3 mph 11.5 mph 84 % 0.00 in
14:48 73.4 °F 67.9 °F 29.92 in North 9.1 mph 18.4 mph 83 % 0.00 in
14:53 73.4 °F 68.3 °F 29.92 in NNE 6.9 mph 11.5 mph 84 % 0.00 in
14:59 73.2 °F 68.4 °F 29.92 in NNE 8.4 mph 15.0 mph 85 % 0.00 in
15:04 73.1 °F 68.3 °F 29.92 in NNE 9.6 mph 16.1 mph 85 % 0.00 in
15:09 73.1 °F 68.0 °F 29.92 in North 8.8 mph 18.4 mph 84 % 0.00 in
15:14 73.1 °F 68.3 °F 29.92 in NNE 7.9 mph 15.0 mph 85 % 0.00 in
15:19 73.3 °F 68.5 °F 29.92 in NE 9.3 mph 16.1 mph 85 % 0.00 in
15:24 73.3 °F 68.2 °F 29.92 in North 9.2 mph 16.1 mph 84 % 0.00 in
15:29 73.4 °F 68.3 °F 29.92 in North 8.2 mph 16.1 mph 84 % 0.00 in
15:34 73.5 °F 68.4 °F 29.92 in ENE 9.0 mph 18.4 mph 84 % 0.00 in
15:39 73.6 °F 68.5 °F 29.92 in North 7.8 mph 19.6 mph 84 % 0.00 in
15:44 73.7 °F 68.6 °F 29.92 in North 7.5 mph 12.7 mph 84 % 0.00 in
15:50 73.6 °F 68.5 °F 29.92 in NNE 10.5 mph 18.4 mph 84 % 0.00 in
15:55 73.6 °F 68.5 °F 29.92 in NNE 11.1 mph 18.0 mph 84 % 0.00 in
16:00 73.6 °F 68.5 °F 29.92 in North 9.0 mph 16.1 mph 84 % 0.00 in
16:05 73.6 °F 68.5 °F 29.92 in NE 10.5 mph 18.4 mph 84 % 0.00 in
16:10 73.6 °F 68.8 °F 29.93 in ENE 8.9 mph 17.0 mph 85 % 0.00 in
16:15 73.5 °F 68.7 °F 29.93 in NE 7.9 mph 13.8 mph 85 % 0.00 in
16:20 73.5 °F 69.1 °F 29.93 in NNE 8.5 mph 16.1 mph 86 % 0.00 in
16:25 73.3 °F 68.9 °F 29.93 in NNE 10.6 mph 19.6 mph 86 % 0.00 in
16:30 73.1 °F 69.0 °F 29.92 in NNE 9.6 mph 16.1 mph 87 % 0.00 in
16:35 73.0 °F 68.9 °F 29.93 in NNE 6.0 mph 11.5 mph 87 % 0.00 in
16:41 72.9 °F 68.8 °F 29.93 in NNE 10.2 mph 12.7 mph 87 % 0.00 in
16:46 72.8 °F 68.7 °F 29.93 in NNE 8.0 mph 15.0 mph 87 % 0.00 in
16:51 72.8 °F 68.7 °F 29.92 in NNE 10.0 mph 16.0 mph 87 % 0.00 in
16:56 72.9 °F 68.8 °F 29.93 in NE 12.4 mph 17.0 mph 87 % 0.00 in
17:01 73.1 °F 69.0 °F 29.93 in NNE 10.2 mph 13.8 mph 87 % 0.00 in
17:06 73.2 °F 69.1 °F 29.93 in NE 7.1 mph 16.1 mph 87 % 0.00 in
17:11 73.2 °F 69.1 °F 29.93 in NNE 6.4 mph 10.4 mph 87 % 0.00 in
17:16 73.0 °F 69.2 °F 29.93 in NE 5.5 mph 11.5 mph 88 % 0.00 in
17:26 72.7 °F 69.3 °F 29.93 in NNE 9.9 mph 19.6 mph 89 % 0.00 in
17:31 72.6 °F 69.2 °F 29.93 in NNE 5.5 mph 12.0 mph 89 % 0.00 in
17:36 72.7 °F 68.9 °F 29.94 in NNE 6.7 mph 20.7 mph 88 % 0.00 in
17:41 72.8 °F 69.0 °F 29.93 in ENE 8.2 mph 12.7 mph 88 % 0.00 in
17:47 72.9 °F 69.1 °F 29.93 in NNE 6.2 mph 12.7 mph 88 % 0.00 in
17:52 73.0 °F 69.2 °F 29.93 in NE 5.5 mph 9.2 mph 88 % 0.00 in
17:57 73.1 °F 69.3 °F 29.93 in NNE 8.2 mph 17.3 mph 88 % 0.00 in
18:02 73.3 °F 69.2 °F 29.93 in NNE 6.7 mph 18.4 mph 87 % 0.00 in
18:07 73.5 °F 69.4 °F 29.93 in East 7.6 mph 11.5 mph 87 % 0.00 in
18:12 73.6 °F 69.2 °F 29.93 in NE 7.5 mph 15.0 mph 86 % 0.00 in
18:17 73.7 °F 69.2 °F 29.93 in NE 7.7 mph 13.8 mph 86 % 0.00 in
18:22 73.7 °F 69.2 °F 29.94 in NE 10.0 mph 15.0 mph 86 % 0.00 in
18:27 73.5 °F 69.7 °F 29.95 in NNE 10.8 mph 13.8 mph 88 % 0.00 in
18:32 73.1 °F 69.7 °F 29.94 in ENE 8.0 mph 11.5 mph 89 % 0.00 in
18:38 72.7 °F 69.6 °F 29.95 in NE 7.4 mph 15.0 mph 90 % 0.01 in
18:43 72.3 °F 69.5 °F 29.94 in ENE 8.0 mph 16.1 mph 91 % 0.01 in
18:48 72.0 °F 69.5 °F 29.95 in ENE 6.5 mph 15.0 mph 92 % 0.01 in
18:53 71.7 °F 69.3 °F 29.94 in NE 7.1 mph 16.1 mph 92 % 0.02 in
18:58 71.6 °F 69.5 °F 29.94 in NNE 5.2 mph 9.2 mph 93 % 0.02 in
19:03 71.5 °F 69.4 °F 29.94 in ENE 4.6 mph 5.8 mph 93 % 0.02 in
19:08 71.4 °F 69.3 °F 29.94 in NE 5.5 mph 9.2 mph 93 % 0.02 in
19:13 71.3 °F 69.2 °F 29.94 in NE 5.0 mph 9.2 mph 93 % 0.02 in
19:18 71.2 °F 69.1 °F 29.94 in ENE 5.7 mph 8.1 mph 93 % 0.02 in
19:23 71.2 °F 69.1 °F 29.94 in NE 6.6 mph 10.0 mph 93 % 0.02 in
19:29 71.1 °F 69.0 °F 29.94 in ENE 6.8 mph 11.5 mph 93 % 0.02 in
19:34 71.1 °F 69.0 °F 29.94 in NE 8.0 mph 12.7 mph 93 % 0.02 in
19:39 71.1 °F 69.0 °F 29.94 in NE 5.7 mph 10.4 mph 93 % 0.01 in
19:44 71.1 °F 69.0 °F 29.94 in ENE 5.0 mph 9.2 mph 93 % 0.01 in
19:49 71.1 °F 69.0 °F 29.94 in ENE 7.4 mph 12.0 mph 93 % 0.00 in
19:54 71.2 °F 69.1 °F 29.94 in ENE 6.4 mph 10.0 mph 93 % 0.00 in
19:59 71.3 °F 69.2 °F 29.94 in ENE 8.4 mph 12.7 mph 93 % 0.00 in
20:04 71.4 °F 69.3 °F 29.94 in ENE 8.7 mph 13.0 mph 93 % 0.00 in
20:09 71.6 °F 69.2 °F 29.94 in East 11.6 mph 16.1 mph 92 % 0.00 in
20:14 71.7 °F 69.3 °F 29.93 in ENE 10.8 mph 17.0 mph 92 % 0.00 in
20:20 71.8 °F 69.3 °F 29.94 in ENE 11.0 mph 15.0 mph 92 % 0.00 in
20:25 71.9 °F 69.4 °F 29.94 in NE 4.7 mph 12.7 mph 92 % 0.00 in
20:30 71.9 °F 69.4 °F 29.94 in ENE 7.1 mph 11.5 mph 92 % 0.00 in
20:35 71.9 °F 69.4 °F 29.94 in NE 7.5 mph 11.5 mph 92 % 0.00 in
20:40 71.9 °F 69.4 °F 29.94 in NE 8.2 mph 12.7 mph 92 % 0.00 in
20:45 72.0 °F 69.2 °F 29.94 in NNE 8.1 mph 19.0 mph 91 % 0.00 in
20:50 72.0 °F 69.2 °F 29.94 in East 8.6 mph 13.8 mph 91 % 0.00 in
20:55 72.1 °F 69.6 °F 29.94 in ENE 8.4 mph 15.0 mph 92 % 0.00 in
21:00 72.1 °F 69.3 °F 29.94 in ENE 10.4 mph 13.0 mph 91 % 0.00 in
21:05 72.1 °F 69.3 °F 29.94 in East 9.8 mph 13.0 mph 91 % 0.00 in
21:11 72.1 °F 69.6 °F 29.94 in ENE 8.0 mph 16.0 mph 92 % 0.00 in
21:16 72.0 °F 69.5 °F 29.94 in ESE 7.5 mph 11.5 mph 92 % 0.00 in
21:21 71.9 °F 69.5 °F 29.94 in ENE 6.0 mph 13.0 mph 92 % 0.00 in
21:26 71.9 °F 69.8 °F 29.95 in ENE 5.0 mph 14.0 mph 93 % 0.00 in
21:31 71.8 °F 69.7 °F 29.95 in NE 5.5 mph 9.2 mph 93 % 0.00 in
21:36 71.7 °F 69.6 °F 29.95 in NE 7.0 mph 12.0 mph 93 % 0.00 in
21:41 71.7 °F 69.6 °F 29.95 in ENE 7.0 mph 13.0 mph 93 % 0.00 in
21:46 71.7 °F 69.9 °F 29.94 in NNE 5.1 mph 8.1 mph 94 % 0.01 in
21:51 71.7 °F 69.9 °F 29.95 in NE 5.0 mph 13.0 mph 94 % 0.00 in
21:56 71.7 °F 69.8 °F 29.94 in NE 6.0 mph 13.0 mph 94 % 0.00 in
22:01 71.6 °F 69.8 °F 29.95 in NE 4.3 mph 8.1 mph 94 % 0.01 in
22:06 71.5 °F 69.7 °F 29.95 in ENE 4.8 mph 8.1 mph 94 % 0.01 in
22:11 71.5 °F 70.0 °F 29.95 in East 4.0 mph 6.9 mph 95 % 0.02 in
22:16 71.6 °F 70.1 °F 29.95 in ENE 6.3 mph 10.0 mph 95 % 0.03 in
22:21 71.6 °F 70.1 °F 29.95 in East 5.2 mph 10.0 mph 95 % 0.03 in
22:26 71.6 °F 70.1 °F 29.95 in East 4.7 mph 11.5 mph 95 % 0.04 in
22:31 71.5 °F 70.0 °F 29.95 in ENE 5.8 mph 9.2 mph 95 % 0.05 in
22:36 71.5 °F 70.3 °F 29.95 in ENE 5.6 mph 12.0 mph 96 % 0.07 in
22:41 71.5 °F 70.0 °F 29.95 in ENE 5.5 mph 11.5 mph 95 % 0.06 in
22:47 71.4 °F 69.9 °F 29.95 in NE 6.0 mph 9.2 mph 95 % 0.06 in
22:52 71.3 °F 69.8 °F 29.95 in East 5.6 mph 11.5 mph 95 % 0.06 in
22:57 71.3 °F 70.1 °F 29.95 in ENE 8.4 mph 12.7 mph 96 % 0.06 in
23:02 71.4 °F 70.2 °F 29.95 in ENE 4.9 mph 11.5 mph 96 % 0.06 in
23:07 71.4 °F 70.2 °F 29.95 in ENE 6.8 mph 11.5 mph 96 % 0.06 in
23:12 71.4 °F 70.2 °F 29.95 in NE 4.5 mph 6.9 mph 96 % 0.06 in
23:17 71.4 °F 70.2 °F 29.95 in NE 6.5 mph 10.4 mph 96 % 0.05 in
23:27 71.3 °F 70.1 °F 29.95 in East 7.8 mph 11.5 mph 96 % 0.07 in
23:32 71.3 °F 70.1 °F 29.95 in ENE 3.8 mph 7.0 mph 96 % 0.05 in
23:38 71.2 °F 70.0 °F 29.95 in ENE 4.0 mph 6.9 mph 96 % 0.04 in
23:43 71.2 °F 70.0 °F 29.95 in East 6.1 mph 12.7 mph 96 % 0.04 in
23:48 71.1 °F 69.9 °F 29.95 in ENE 6.2 mph 9.2 mph 96 % 0.04 in
23:58 71.0 °F 69.8 °F 29.95 in ENE 4.0 mph 6.9 mph 96 % 0.04 in
Crab Meadow Weather
Compliments of Weather Underground - 2.75 mb

Script developed by  Jim McMurry - jmcmurry@mwt.net Adapted for the template by  Wim van der Kuil - Leuven-Template.eu

Weather Terms: Warning - A warning is issued when a hazardous weather or hydrologic event is occurring, imminent or likely. A warning means weather conditions pose a threat to life or property. People in the path of the storm need to take protective action.